Time;durP1;ratioP1;P1;durP2;ratioP2;P2;SDS_P1;SDS_P2;PMS_P1;PMS_P2;Temp;Humidity;BMP_temperature;BMP_pressure;BME280_temperature;BME280_humidity;BME280_pressure;Samples;Min_cycle;Max_cycle;Signal;HPM_P1;HPM_P2
2021/07/27 00:00:55;;;;;;;5.43;4.57;;;22.20;70.00;;;;;;1490496;39;20338;-63
2021/07/27 00:02:16;;;;;;;5.72;4.50;;;22.20;70.00;;;;;;1490065;39;20407;-63
2021/07/27 00:03:37;;;;;;;5.03;4.22;;;22.10;70.00;;;;;;1489341;39;20130;-63
2021/07/27 00:04:58;;;;;;;6.65;4.78;;;22.10;70.10;;;;;;1490577;39;20032;-63
2021/07/27 00:06:19;;;;;;;4.85;4.03;;;22.10;70.20;;;;;;1490154;39;20027;-63
2021/07/27 00:07:40;;;;;;;7.68;4.40;;;22.10;70.30;;;;;;1490321;39;20028;-63
2021/07/27 00:09:01;;;;;;;5.20;4.40;;;22.10;70.30;;;;;;1486888;39;21903;-63
2021/07/27 00:10:27;;;;;;;6.50;4.50;;;22.10;70.30;;;;;;1485637;40;20061;-63
2021/07/27 00:11:48;;;;;;;5.60;4.35;;;22.10;70.80;;;;;;1486118;39;20035;-63
2021/07/27 00:13:09;;;;;;;7.70;4.82;;;22.00;70.40;;;;;;1486602;39;20035;-63
2021/07/27 00:14:30;;;;;;;7.57;4.95;;;22.10;70.50;;;;;;1484577;40;20040;-63
2021/07/27 00:15:50;;;;;;;5.35;4.57;;;22.00;70.60;;;;;;1486546;40;20141;-63
2021/07/27 00:17:11;;;;;;;7.40;5.32;;;22.00;70.80;;;;;;1486095;40;20032;-63
2021/07/27 00:18:33;;;;;;;6.82;5.07;;;22.00;70.90;;;;;;1486272;40;20165;-63
2021/07/27 00:19:56;;;;;;;6.88;4.85;;;22.00;71.00;;;;;;1481677;40;20448;-63
2021/07/27 00:21:17;;;;;;;6.68;5.07;;;22.00;71.00;;;;;;1480467;40;20114;-63
2021/07/27 00:22:41;;;;;;;7.10;4.97;;;22.00;71.00;;;;;;1486840;39;20671;-63
2021/07/27 00:24:02;;;;;;;12.05;6.00;;;21.90;71.30;;;;;;1486230;40;20039;-63
2021/07/27 00:25:23;;;;;;;6.18;5.00;;;22.00;71.00;;;;;;1485216;40;20052;-63
2021/07/27 00:26:44;;;;;;;8.95;5.40;;;21.90;71.10;;;;;;1484961;40;20052;-63
2021/07/27 00:28:05;;;;;;;8.98;5.50;;;21.90;71.20;;;;;;1486897;40;20055;-63
2021/07/27 00:29:26;;;;;;;7.05;5.22;;;21.90;71.20;;;;;;1486150;40;20056;-63
2021/07/27 00:30:47;;;;;;;6.50;5.55;;;21.90;71.30;;;;;;1484620;40;20039;-63
2021/07/27 00:32:08;;;;;;;6.90;5.20;;;21.90;71.40;;;;;;1485115;40;20542;-63
2021/07/27 00:33:29;;;;;;;7.88;5.63;;;21.90;71.50;;;;;;1487268;40;20032;-63
2021/07/27 00:34:54;;;;;;;7.53;5.60;;;21.90;71.50;;;;;;1484866;40;20039;-63
2021/07/27 00:36:15;;;;;;;8.73;5.85;;;21.90;71.80;;;;;;1486588;40;20032;-63
2021/07/27 00:37:39;;;;;;;6.85;5.30;;;21.80;71.50;;;;;;1485313;40;20355;-63
2021/07/27 00:39:00;;;;;;;7.20;5.68;;;21.80;71.60;;;;;;1486794;40;20032;-63
2021/07/27 00:40:20;;;;;;;6.35;5.30;;;21.80;71.70;;;;;;1482383;40;20028;-63
2021/07/27 00:41:41;;;;;;;6.20;5.35;;;21.80;71.70;;;;;;1483935;40;20381;-63
2021/07/27 00:43:05;;;;;;;12.25;6.45;;;21.80;71.80;;;;;;1485790;40;20032;-63
2021/07/27 00:44:26;;;;;;;11.18;6.25;;;21.80;72.00;;;;;;1485520;40;20024;-63
2021/07/27 00:45:47;;;;;;;8.18;5.75;;;21.80;72.00;;;;;;1484103;40;20025;-63
2021/07/27 00:47:08;;;;;;;9.25;6.25;;;21.80;72.00;;;;;;1487189;39;20401;-63
2021/07/27 00:48:29;;;;;;;7.65;5.65;;;21.80;72.10;;;;;;1487142;40;20061;-63
2021/07/27 00:49:52;;;;;;;7.75;5.72;;;21.80;72.20;;;;;;1484476;40;20035;-63
2021/07/27 00:51:13;;;;;;;9.25;6.18;;;21.80;72.20;;;;;;1485873;40;20514;-63
2021/07/27 00:52:36;;;;;;;9.77;6.43;;;21.80;72.20;;;;;;1484179;40;20041;-63
2021/07/27 00:53:58;;;;;;;9.02;6.90;;;21.80;72.20;;;;;;1486785;40;20042;-64
2021/07/27 00:55:19;;;;;;;7.47;5.82;;;21.80;72.20;;;;;;1485479;40;20033;-64
2021/07/27 00:56:40;;;;;;;7.45;6.07;;;21.80;72.20;;;;;;1486172;40;21147;-63
2021/07/27 00:58:02;;;;;;;8.00;6.03;;;21.80;72.20;;;;;;1484724;40;20028;-64
2021/07/27 00:59:22;;;;;;;10.00;5.90;;;21.80;72.30;;;;;;1486560;39;20440;-62
2021/07/27 01:00:43;;;;;;;8.57;6.13;;;21.80;72.30;;;;;;1484888;40;20048;-63
2021/07/27 01:02:04;;;;;;;9.45;6.22;;;21.80;72.40;;;;;;1484532;40;20024;-63
2021/07/27 01:03:25;;;;;;;10.43;7.28;;;21.70;72.30;;;;;;1484618;40;20024;-64
2021/07/27 01:04:46;;;;;;;10.63;6.95;;;21.70;72.40;;;;;;1486197;40;20285;-63
2021/07/27 01:06:07;;;;;;;10.15;6.20;;;21.70;72.30;;;;;;1487278;40;20018;-63
2021/07/27 01:07:29;;;;;;;8.02;6.20;;;21.70;72.40;;;;;;1485693;40;20064;-63
2021/07/27 01:08:51;;;;;;;8.88;6.70;;;21.70;72.50;;;;;;1487107;39;20039;-63
2021/07/27 01:10:14;;;;;;;12.18;7.43;;;21.70;72.50;;;;;;1491065;39;20279;-63
2021/07/27 01:11:41;;;;;;;9.68;7.15;;;21.70;72.50;;;;;;1490000;39;20028;-63
2021/07/27 01:13:03;;;;;;;9.63;6.68;;;21.70;72.80;;;;;;1489558;39;20128;-63
2021/07/27 01:14:24;;;;;;;8.35;6.53;;;21.70;72.70;;;;;;1488913;39;20022;-63
2021/07/27 01:15:45;;;;;;;10.20;7.25;;;21.70;72.50;;;;;;1488760;39;20338;-63
2021/07/27 01:17:06;;;;;;;12.35;7.60;;;21.70;72.50;;;;;;1492146;39;20081;-63
2021/07/27 01:18:30;;;;;;;9.40;7.10;;;21.70;72.60;;;;;;1492221;39;20035;-63
2021/07/27 01:37:56;;;;;;;9.63;7.22;;;21.50;72.20;;;;;;1489688;39;20073;-63
2021/07/27 01:39:23;;;;;;;11.65;7.93;;;21.50;72.20;;;;;;1493427;39;20042;-63
2021/07/27 01:42:12;;;;;;;10.98;8.05;;;21.40;72.70;;;;;;1490872;39;20116;-63
2021/07/27 01:43:35;;;;;;;10.27;7.85;;;21.40;72.70;;;;;;1489814;39;20302;-63
2021/07/27 01:45:07;;;;;;;12.07;8.52;;;21.40;72.90;;;;;;1493431;39;20031;-63
2021/07/27 01:46:33;;;;;;;12.57;8.68;;;21.40;73.40;;;;;;1492216;39;20020;-63
2021/07/27 01:47:54;;;;;;;13.65;9.07;;;21.40;73.40;;;;;;1491044;39;20049;-63
2021/07/27 01:49:15;;;;;;;11.98;8.43;;;21.40;73.30;;;;;;1493686;39;20027;-63
2021/07/27 01:50:36;;;;;;;12.43;8.77;;;21.30;73.30;;;;;;1490577;39;20072;-63
2021/07/27 01:51:57;;;;;;;12.35;9.30;;;21.30;73.40;;;;;;1490173;39;20357;-63
2021/07/27 01:53:27;;;;;;;10.93;9.18;;;21.30;73.70;;;;;;1491472;39;20027;-63
2021/07/27 01:54:53;;;;;;;15.40;10.40;;;21.30;73.70;;;;;;1491170;39;20035;-63
2021/07/27 01:56:15;;;;;;;13.63;9.77;;;21.30;73.70;;;;;;1492572;39;20042;-63
2021/07/27 01:57:35;;;;;;;17.88;10.32;;;21.30;73.80;;;;;;1490520;39;20328;-63
2021/07/27 01:58:57;;;;;;;14.07;9.68;;;21.30;74.00;;;;;;1489903;39;20367;-63
2021/07/27 02:00:19;;;;;;;15.05;10.68;;;21.30;74.00;;;;;;1489809;39;20065;-63
2021/07/27 02:01:40;;;;;;;15.13;9.63;;;21.30;74.20;;;;;;1490694;39;20016;-63
2021/07/27 02:03:01;;;;;;;16.83;10.50;;;21.20;74.10;;;;;;1490986;39;20112;-63
2021/07/27 02:04:22;;;;;;;13.35;10.20;;;21.30;74.30;;;;;;1489916;39;20353;-63
2021/07/27 02:05:45;;;;;;;11.88;9.73;;;21.20;74.20;;;;;;1490252;39;20046;-63
2021/07/27 02:07:07;;;;;;;15.27;10.35;;;21.30;74.30;;;;;;1493006;39;20325;-63
2021/07/27 02:08:28;;;;;;;11.98;9.70;;;21.20;74.40;;;;;;1489738;39;20032;-63
2021/07/27 02:09:56;;;;;;;13.38;9.90;;;21.20;74.40;;;;;;1491036;39;20048;-63
2021/07/27 02:11:20;;;;;;;12.20;9.90;;;21.20;74.40;;;;;;1490415;39;20023;-62
2021/07/27 02:12:50;;;;;;;15.07;10.02;;;21.20;74.50;;;;;;1489427;39;20028;-63
2021/07/27 02:14:16;;;;;;;15.00;11.20;;;21.20;74.40;;;;;;1490527;39;20040;-63
2021/07/27 02:15:38;;;;;;;15.55;10.68;;;21.20;74.30;;;;;;1491315;39;20040;-64
2021/07/27 02:16:59;;;;;;;14.65;10.63;;;21.20;74.30;;;;;;1492895;39;20083;-64
2021/07/27 02:18:23;;;;;;;13.38;10.35;;;21.20;74.30;;;;;;1493590;39;20434;-63
2021/07/27 02:19:44;;;;;;;12.63;10.02;;;21.20;74.70;;;;;;1489228;39;20035;-63
2021/07/27 02:21:05;;;;;;;14.15;10.60;;;21.20;74.40;;;;;;1492220;39;20024;-63
2021/07/27 02:22:26;;;;;;;12.93;10.43;;;21.20;74.50;;;;;;1491007;39;20160;-63
2021/07/27 02:23:47;;;;;;;14.20;11.07;;;21.20;74.50;;;;;;1491327;39;20027;-63
2021/07/27 02:25:09;;;;;;;14.48;10.55;;;21.20;74.50;;;;;;1491651;39;20023;-63
2021/07/27 02:26:30;;;;;;;14.23;10.93;;;21.20;74.50;;;;;;1488774;39;20047;-63
2021/07/27 02:27:51;;;;;;;14.02;10.57;;;21.20;74.50;;;;;;1490290;39;20048;-63
2021/07/27 02:29:15;;;;;;;14.52;10.57;;;21.20;74.50;;;;;;1492421;39;20023;-63
2021/07/27 02:30:39;;;;;;;13.77;10.05;;;21.20;74.80;;;;;;1488914;39;20308;-63
2021/07/27 02:32:00;;;;;;;18.92;11.52;;;21.20;74.50;;;;;;1490907;39;20043;-63
2021/07/27 02:33:22;;;;;;;14.02;10.30;;;21.20;74.50;;;;;;1489410;39;20023;-63
2021/07/27 02:34:43;;;;;;;12.05;9.32;;;21.20;74.60;;;;;;1494291;39;20132;-63
2021/07/27 02:36:04;;;;;;;14.52;10.73;;;21.20;74.50;;;;;;1491650;39;20028;-63
2021/07/27 02:37:25;;;;;;;10.63;9.25;;;21.10;74.50;;;;;;1492105;39;20027;-63
2021/07/27 02:38:48;;;;;;;16.23;11.63;;;21.10;74.50;;;;;;1492975;39;20031;-63
2021/07/27 02:40:10;;;;;;;15.52;10.82;;;21.20;74.70;;;;;;1493044;39;20019;-63
2021/07/27 02:41:32;;;;;;;20.13;11.93;;;21.10;74.50;;;;;;1493364;39;20114;-63
2021/07/27 02:42:53;;;;;;;14.80;10.30;;;21.10;74.50;;;;;;1489453;39;20282;-63
2021/07/27 02:44:13;;;;;;;13.75;10.00;;;21.10;74.50;;;;;;1492395;39;20429;-63
2021/07/27 02:45:34;;;;;;;14.18;10.70;;;21.20;74.60;;;;;;1492635;39;20059;-62
2021/07/27 02:46:55;;;;;;;15.27;10.73;;;21.10;74.50;;;;;;1490280;39;20349;-63
2021/07/27 02:48:16;;;;;;;15.55;10.10;;;21.10;74.50;;;;;;1491513;39;20357;-63
2021/07/27 02:49:37;;;;;;;16.20;10.57;;;21.10;74.50;;;;;;1491828;39;20128;-63
2021/07/27 02:51:00;;;;;;;15.05;10.50;;;21.10;74.50;;;;;;1489960;39;20028;-62
2021/07/27 02:52:21;;;;;;;13.60;10.20;;;21.10;74.50;;;;;;1492693;39;20040;-63
2021/07/27 02:53:42;;;;;;;16.00;10.75;;;21.10;74.50;;;;;;1491615;39;20032;-63
2021/07/27 02:55:03;;;;;;;16.77;11.23;;;21.10;74.50;;;;;;1491492;39;20036;-63
2021/07/27 02:56:25;;;;;;;17.50;11.38;;;21.10;74.50;;;;;;1488485;39;20117;-63
2021/07/27 02:57:50;;;;;;;15.73;11.35;;;21.10;74.50;;;;;;1492005;39;20047;-63
2021/07/27 02:59:11;;;;;;;15.77;11.45;;;21.10;74.60;;;;;;1491611;39;20032;-63
2021/07/27 03:00:31;;;;;;;25.88;13.20;;;21.10;74.50;;;;;;1490881;39;20024;-62
2021/07/27 03:01:52;;;;;;;17.17;12.13;;;21.10;74.60;;;;;;1490170;39;20035;-63
2021/07/27 03:03:13;;;;;;;16.02;12.05;;;21.00;74.60;;;;;;1490738;39;20031;-63
2021/07/27 03:04:34;;;;;;;18.95;12.25;;;21.00;74.60;;;;;;1491543;39;20036;-63
2021/07/27 03:05:58;;;;;;;19.10;12.52;;;21.00;74.70;;;;;;1490125;39;20031;-63
2021/07/27 03:07:20;;;;;;;15.45;12.05;;;21.00;74.70;;;;;;1491388;39;20032;-63
2021/07/27 03:09:02;;;;;;;17.88;12.23;;;21.00;74.70;;;;;;1491243;39;20055;-63
2021/07/27 03:10:23;;;;;;;14.68;11.10;;;21.00;74.60;;;;;;1491494;39;20602;-63
2021/07/27 03:11:44;;;;;;;15.48;11.70;;;21.00;74.50;;;;;;1489661;39;20040;-63
2021/07/27 03:13:05;;;;;;;15.05;11.80;;;21.00;74.50;;;;;;1491374;39;20031;-63
2021/07/27 03:14:26;;;;;;;15.40;11.43;;;20.90;74.50;;;;;;1493095;39;20027;-62
2021/07/27 03:15:47;;;;;;;16.75;12.48;;;20.90;74.60;;;;;;1491553;39;20032;-63
2021/07/27 03:17:07;;;;;;;19.27;13.73;;;20.90;74.70;;;;;;1491455;39;21169;-63
2021/07/27 03:18:28;;;;;;;18.10;12.85;;;21.00;74.80;;;;;;1489491;39;20038;-63
2021/07/27 03:19:49;;;;;;;18.83;12.23;;;21.00;74.80;;;;;;1493072;39;20046;-63
2021/07/27 03:21:21;;;;;;;18.38;12.32;;;20.90;74.70;;;;;;1490615;39;20078;-63
2021/07/27 03:22:42;;;;;;;14.10;10.65;;;20.90;75.10;;;;;;1490673;39;20039;-63
2021/07/27 03:24:03;;;;;;;16.08;11.85;;;20.90;74.70;;;;;;1493368;39;20034;-63
2021/07/27 03:25:25;;;;;;;17.60;12.32;;;20.90;74.70;;;;;;1492010;39;20027;-63
2021/07/27 03:26:46;;;;;;;17.48;13.05;;;20.90;74.70;;;;;;1488857;39;20377;-63
2021/07/27 03:28:07;;;;;;;16.45;12.30;;;20.90;74.70;;;;;;1490079;39;20116;-63
2021/07/27 03:29:27;;;;;;;17.20;12.93;;;20.90;74.70;;;;;;1489283;39;20549;-63
2021/07/27 03:30:50;;;;;;;15.85;13.05;;;20.90;74.70;;;;;;1489916;39;20044;-63
2021/07/27 03:32:11;;;;;;;15.98;12.65;;;20.80;74.80;;;;;;1491564;39;20260;-63
2021/07/27 03:33:32;;;;;;;15.45;11.63;;;20.80;74.60;;;;;;1491863;39;20027;-63
2021/07/27 03:34:53;;;;;;;19.50;12.88;;;20.80;74.60;;;;;;1489467;39;20260;-63
2021/07/27 03:36:13;;;;;;;15.77;12.20;;;20.80;74.70;;;;;;1492426;39;20059;-63
2021/07/27 03:37:35;;;;;;;16.10;12.48;;;20.80;74.60;;;;;;1490325;39;20038;-63
2021/07/27 03:38:56;;;;;;;16.67;11.80;;;20.80;74.70;;;;;;1489386;39;20035;-63
2021/07/27 03:40:17;;;;;;;17.70;12.27;;;20.80;74.80;;;;;;1490957;39;20109;-63
2021/07/27 03:41:37;;;;;;;17.45;13.63;;;20.80;74.80;;;;;;1488644;39;20059;-63
2021/07/27 03:42:58;;;;;;;17.23;11.85;;;20.80;74.80;;;;;;1492486;39;20051;-63
2021/07/27 03:44:20;;;;;;;18.25;13.43;;;20.80;74.80;;;;;;1491225;39;20276;-63
2021/07/27 03:45:41;;;;;;;18.17;11.77;;;20.80;74.80;;;;;;1488642;39;20351;-63
2021/07/27 03:47:04;;;;;;;18.92;13.10;;;20.80;74.80;;;;;;1491184;39;20020;-63
2021/07/27 03:48:25;;;;;;;15.48;12.00;;;20.70;74.90;;;;;;1488955;39;20036;-63
2021/07/27 03:49:46;;;;;;;16.27;12.45;;;20.70;74.80;;;;;;1490746;39;20040;-63
2021/07/27 03:51:07;;;;;;;19.33;13.55;;;20.70;74.70;;;;;;1491335;39;20024;-63
2021/07/27 03:52:28;;;;;;;16.55;12.50;;;20.70;74.80;;;;;;1490466;39;20019;-63
2021/07/27 03:53:49;;;;;;;20.23;13.65;;;20.70;74.80;;;;;;1489826;39;20424;-63
2021/07/27 03:55:10;;;;;;;18.85;13.85;;;20.70;74.90;;;;;;1490729;39;20063;-63
2021/07/27 03:56:31;;;;;;;20.17;13.30;;;20.70;74.90;;;;;;1489916;39;20024;-63
2021/07/27 03:57:55;;;;;;;17.95;12.80;;;20.70;74.90;;;;;;1490658;39;20028;-62
2021/07/27 03:59:16;;;;;;;19.05;13.05;;;20.70;75.10;;;;;;1491532;39;20099;-63
2021/07/27 04:00:37;;;;;;;18.20;12.27;;;20.70;75.00;;;;;;1490908;39;20036;-63
2021/07/27 04:01:58;;;;;;;14.88;11.35;;;20.70;74.90;;;;;;1490261;39;20297;-63
2021/07/27 04:03:19;;;;;;;19.85;13.63;;;20.70;75.00;;;;;;1490288;39;20384;-63
2021/07/27 04:04:41;;;;;;;19.95;13.35;;;20.70;74.90;;;;;;1489582;39;20040;-63
2021/07/27 04:06:02;;;;;;;18.17;12.93;;;20.70;75.00;;;;;;1491562;39;20034;-63
2021/07/27 04:07:23;;;;;;;17.55;12.60;;;20.70;75.00;;;;;;1492583;39;20284;-63
2021/07/27 04:08:44;;;;;;;18.73;13.48;;;20.70;75.00;;;;;;1486270;39;20547;-63
2021/07/27 04:10:06;;;;;;;16.80;13.05;;;20.70;75.00;;;;;;1490796;39;20046;-63
2021/07/27 04:11:26;;;;;;;21.23;13.88;;;20.70;75.00;;;;;;1493119;39;20054;-63
2021/07/27 04:12:47;;;;;;;15.90;12.73;;;20.70;75.00;;;;;;1490532;39;20039;-63
2021/07/27 04:14:10;;;;;;;20.25;13.10;;;20.60;75.00;;;;;;1491593;39;20030;-63
2021/07/27 04:15:31;;;;;;;17.60;12.95;;;20.70;75.10;;;;;;1492920;39;20019;-63
2021/07/27 04:16:52;;;;;;;19.52;13.15;;;20.70;75.10;;;;;;1489342;39;20036;-63
2021/07/27 04:18:16;;;;;;;17.08;12.52;;;20.70;75.10;;;;;;1489547;39;20024;-63
2021/07/27 04:19:37;;;;;;;18.08;11.95;;;20.70;75.20;;;;;;1489276;39;20043;-63
2021/07/27 04:20:59;;;;;;;16.75;11.90;;;20.70;75.10;;;;;;1491469;39;20044;-63
2021/07/27 04:22:20;;;;;;;18.02;12.55;;;20.60;75.10;;;;;;1489940;39;20320;-62
2021/07/27 04:23:41;;;;;;;19.10;12.77;;;20.70;75.20;;;;;;1492388;39;20040;-63
2021/07/27 04:25:02;;;;;;;18.13;12.90;;;20.70;75.20;;;;;;1489734;39;20130;-63
2021/07/27 04:26:23;;;;;;;16.45;12.07;;;20.70;75.20;;;;;;1491109;39;20112;-63
2021/07/27 04:27:44;;;;;;;16.08;12.27;;;20.70;75.20;;;;;;1491024;39;20039;-63
2021/07/27 04:29:05;;;;;;;16.30;11.85;;;20.70;75.30;;;;;;1491250;39;20059;-63
2021/07/27 04:30:26;;;;;;;16.50;12.50;;;20.60;75.30;;;;;;1490488;39;20030;-63
2021/07/27 04:31:51;;;;;;;16.70;13.13;;;20.70;75.40;;;;;;1490545;39;20068;-63
2021/07/27 04:33:11;;;;;;;17.45;11.02;;;20.70;75.70;;;;;;1491738;39;20366;-63
2021/07/27 04:34:32;;;;;;;14.95;10.90;;;20.70;75.50;;;;;;1490462;39;20027;-63
2021/07/27 04:35:54;;;;;;;15.55;11.52;;;20.70;75.50;;;;;;1489559;39;20405;-63
2021/07/27 04:37:14;;;;;;;12.75;10.55;;;20.70;75.50;;;;;;1490922;39;20068;-63
2021/07/27 04:38:36;;;;;;;15.70;11.48;;;20.70;75.60;;;;;;1495396;39;20027;-63
2021/07/27 04:39:57;;;;;;;16.35;11.07;;;20.70;75.60;;;;;;1491946;39;20032;-63
2021/07/27 04:41:18;;;;;;;16.45;11.40;;;20.70;75.70;;;;;;1491007;39;20365;-63
2021/07/27 04:42:42;;;;;;;15.77;10.88;;;20.70;75.70;;;;;;1487829;39;20028;-63
2021/07/27 04:44:06;;;;;;;13.65;10.30;;;20.70;75.80;;;;;;1491069;39;20292;-63
2021/07/27 04:45:27;;;;;;;15.40;10.80;;;20.70;75.80;;;;;;1491386;39;20028;-63
2021/07/27 04:46:48;;;;;;;13.90;11.13;;;20.70;75.70;;;;;;1489198;39;20043;-63
2021/07/27 04:48:09;;;;;;;14.10;10.98;;;20.70;75.70;;;;;;1489071;39;20032;-63
2021/07/27 04:49:29;;;;;;;15.40;11.65;;;20.70;75.80;;;;;;1491205;39;20028;-63
2021/07/27 04:50:50;;;;;;;14.60;11.20;;;20.70;75.80;;;;;;1490845;39;20037;-63
2021/07/27 04:52:15;;;;;;;14.32;11.15;;;20.70;75.80;;;;;;1492988;39;20067;-63
2021/07/27 04:53:37;;;;;;;16.42;10.80;;;20.70;75.90;;;;;;1490827;39;20028;-63
2021/07/27 04:54:58;;;;;;;13.88;11.15;;;20.70;75.90;;;;;;1493297;39;20028;-63
2021/07/27 04:56:19;;;;;;;15.30;11.35;;;20.70;75.90;;;;;;1491848;39;20023;-63
2021/07/27 04:57:40;;;;;;;15.52;10.55;;;20.80;76.10;;;;;;1490432;39;20020;-63
2021/07/27 04:59:01;;;;;;;14.10;10.70;;;20.70;76.00;;;;;;1491344;39;20039;-63
2021/07/27 05:00:25;;;;;;;13.73;10.75;;;20.70;76.10;;;;;;1494248;39;20015;-63
2021/07/27 05:01:46;;;;;;;14.48;10.27;;;20.80;76.40;;;;;;1491591;39;20044;-63
2021/07/27 05:03:07;;;;;;;13.38;9.88;;;20.80;76.30;;;;;;1490969;39;20036;-63
2021/07/27 05:04:29;;;;;;;13.10;10.00;;;20.80;76.30;;;;;;1487417;39;20024;-63
2021/07/27 05:05:53;;;;;;;17.20;10.25;;;20.80;76.40;;;;;;1489179;39;20060;-63
2021/07/27 05:07:14;;;;;;;13.52;10.40;;;20.80;76.50;;;;;;1491080;39;20129;-63
2021/07/27 05:08:36;;;;;;;10.10;8.70;;;20.80;76.40;;;;;;1489468;39;20032;-63
2021/07/27 05:09:58;;;;;;;11.63;9.50;;;20.80;76.40;;;;;;1487889;40;20370;-62
2021/07/27 05:11:20;;;;;;;12.82;9.65;;;20.80;76.40;;;;;;1488217;40;20046;-63
2021/07/27 05:12:41;;;;;;;11.07;9.35;;;20.90;76.50;;;;;;1487125;40;20276;-63
2021/07/27 05:14:01;;;;;;;11.90;8.63;;;20.90;76.60;;;;;;1486783;40;20035;-63
2021/07/27 05:15:22;;;;;;;11.48;9.63;;;20.90;76.60;;;;;;1486392;40;20042;-62
2021/07/27 05:16:43;;;;;;;12.90;9.68;;;20.90;76.50;;;;;;1483852;40;20125;-62
2021/07/27 05:18:04;;;;;;;14.32;9.27;;;20.90;76.50;;;;;;1487682;40;20067;-63
2021/07/27 05:19:25;;;;;;;13.77;9.35;;;20.90;76.50;;;;;;1481309;39;20255;-63
2021/07/27 05:20:46;;;;;;;11.52;9.38;;;21.00;76.40;;;;;;1482733;39;20094;-63
2021/07/27 05:22:07;;;;;;;16.05;10.20;;;21.00;76.40;;;;;;1487349;39;20036;-63
2021/07/27 05:23:29;;;;;;;11.13;9.18;;;21.00;76.30;;;;;;1482456;40;20029;-62
2021/07/27 05:24:51;;;;;;;12.25;8.40;;;21.00;76.30;;;;;;1487047;40;20047;-62
2021/07/27 05:26:12;;;;;;;11.55;8.30;;;21.00;76.30;;;;;;1487813;39;20120;-63
2021/07/27 05:27:35;;;;;;;10.63;9.02;;;21.00;76.20;;;;;;1486527;39;20039;-63
2021/07/27 05:28:55;;;;;;;13.32;9.15;;;21.10;76.30;;;;;;1486536;39;20043;-63
2021/07/27 05:30:17;;;;;;;11.80;8.88;;;21.10;76.20;;;;;;1485308;39;20020;-63
2021/07/27 05:31:38;;;;;;;12.27;9.43;;;21.00;76.10;;;;;;1485265;40;20024;-63
2021/07/27 05:33:01;;;;;;;11.02;8.73;;;21.00;76.10;;;;;;1486598;39;20458;-62
2021/07/27 05:34:22;;;;;;;13.13;10.13;;;21.10;76.20;;;;;;1486783;39;20423;-63
2021/07/27 05:35:43;;;;;;;10.30;8.52;;;21.10;76.30;;;;;;1484881;39;20033;-63
2021/07/27 05:37:04;;;;;;;9.88;8.82;;;21.10;76.30;;;;;;1486168;39;20037;-63
2021/07/27 05:38:25;;;;;;;11.93;9.10;;;21.10;76.30;;;;;;1486085;39;20108;-63
2021/07/27 05:39:46;;;;;;;11.85;9.45;;;21.10;76.30;;;;;;1487012;39;20121;-63
2021/07/27 05:41:07;;;;;;;11.15;8.15;;;21.10;76.30;;;;;;1484930;39;20424;-63
2021/07/27 05:42:28;;;;;;;9.40;7.25;;;21.10;76.30;;;;;;1486797;39;20028;-63
2021/07/27 05:43:51;;;;;;;11.23;8.43;;;21.20;76.30;;;;;;1484538;39;20028;-63
2021/07/27 05:45:12;;;;;;;10.25;8.10;;;21.20;76.40;;;;;;1484269;39;20039;-63
2021/07/27 05:46:33;;;;;;;12.48;9.20;;;21.20;76.40;;;;;;1483643;40;20251;-63
2021/07/27 05:47:54;;;;;;;12.98;9.02;;;21.20;76.40;;;;;;1486524;40;20029;-63
2021/07/27 05:49:15;;;;;;;10.57;8.98;;;21.20;76.40;;;;;;1486592;40;20031;-63
2021/07/27 05:50:36;;;;;;;11.00;8.80;;;21.30;76.60;;;;;;1486199;40;20035;-63
2021/07/27 05:51:57;;;;;;;11.55;8.80;;;21.30;76.60;;;;;;1485323;40;20679;-63
2021/07/27 05:53:18;;;;;;;11.82;9.15;;;21.30;76.50;;;;;;1485863;40;20344;-63
2021/07/27 05:54:45;;;;;;;12.50;8.88;;;21.30;76.50;;;;;;1484467;40;20029;-63
2021/07/27 05:56:05;;;;;;;11.50;9.07;;;21.40;76.60;;;;;;1486925;39;20353;-62
2021/07/27 05:57:26;;;;;;;13.02;9.00;;;21.40;76.40;;;;;;1486044;40;20021;-63
2021/07/27 05:58:47;;;;;;;12.60;8.25;;;21.40;76.40;;;;;;1485032;40;20033;-63
2021/07/27 06:00:09;;;;;;;12.18;8.10;;;21.40;76.30;;;;;;1486621;40;20035;-63
2021/07/27 06:01:30;;;;;;;10.35;8.60;;;21.50;76.30;;;;;;1481416;40;20025;-63
2021/07/27 06:02:50;;;;;;;11.20;8.05;;;21.50;76.20;;;;;;1482510;40;20123;-63
2021/07/27 06:04:11;;;;;;;12.88;9.15;;;21.50;76.20;;;;;;1486954;39;20035;-63
2021/07/27 06:05:32;;;;;;;13.88;8.65;;;21.50;76.20;;;;;;1486698;39;20040;-62
2021/07/27 06:06:53;;;;;;;12.00;8.02;;;21.60;76.00;;;;;;1485860;39;20914;-63
2021/07/27 06:08:14;;;;;;;13.18;8.85;;;21.60;75.90;;;;;;1484820;39;20124;-63
2021/07/27 06:09:35;;;;;;;10.32;7.65;;;21.60;75.80;;;;;;1487043;39;20674;-62
2021/07/27 06:10:56;;;;;;;14.20;8.57;;;21.70;75.90;;;;;;1486587;39;20028;-62
2021/07/27 06:12:17;;;;;;;14.20;9.13;;;21.70;75.80;;;;;;1485868;40;20101;-63
2021/07/27 06:13:38;;;;;;;10.05;7.35;;;21.70;75.70;;;;;;1485586;40;20132;-63
2021/07/27 06:14:59;;;;;;;11.88;8.45;;;21.80;75.60;;;;;;1485807;40;20068;-62
2021/07/27 06:16:20;;;;;;;12.98;8.55;;;21.80;75.50;;;;;;1486984;39;20032;-62
2021/07/27 06:17:41;;;;;;;10.70;8.32;;;21.80;75.40;;;;;;1486510;40;20363;-62
2021/07/27 06:19:02;;;;;;;9.93;7.78;;;21.90;75.40;;;;;;1484840;40;20114;-63
2021/07/27 06:20:23;;;;;;;11.18;7.70;;;21.90;75.40;;;;;;1483327;40;20031;-63
2021/07/27 06:21:44;;;;;;;11.52;7.93;;;21.90;75.40;;;;;;1483579;40;20044;-63
2021/07/27 06:23:06;;;;;;;11.70;8.02;;;21.90;75.10;;;;;;1485231;40;20116;-63
2021/07/27 06:24:26;;;;;;;10.35;8.27;;;21.90;74.90;;;;;;1481482;40;20021;-63
2021/07/27 06:25:47;;;;;;;10.68;8.10;;;22.00;74.80;;;;;;1483339;40;20051;-63
2021/07/27 06:27:08;;;;;;;13.02;8.38;;;22.00;74.70;;;;;;1486664;40;20068;-63
2021/07/27 06:28:29;;;;;;;12.30;8.85;;;22.00;74.60;;;;;;1486702;40;20039;-63
2021/07/27 06:29:50;;;;;;;9.57;7.97;;;22.00;74.50;;;;;;1486285;40;20049;-63
2021/07/27 06:31:11;;;;;;;9.70;8.15;;;22.00;74.50;;;;;;1485436;39;20024;-63
2021/07/27 06:32:32;;;;;;;11.00;8.07;;;22.10;74.60;;;;;;1487599;40;20109;-63
2021/07/27 06:33:53;;;;;;;10.55;8.43;;;22.10;74.50;;;;;;1487158;39;20385;-63
2021/07/27 06:35:15;;;;;;;9.80;7.57;;;22.10;74.40;;;;;;1484107;40;20024;-63
2021/07/27 06:36:35;;;;;;;11.85;7.63;;;22.10;74.40;;;;;;1482570;40;20043;-63
2021/07/27 06:37:56;;;;;;;8.63;6.93;;;22.10;74.30;;;;;;1486978;40;20048;-63
2021/07/27 06:39:17;;;;;;;11.32;7.30;;;22.10;74.40;;;;;;1486256;40;20109;-63
2021/07/27 06:40:38;;;;;;;9.27;7.07;;;22.20;74.40;;;;;;1485549;40;20051;-63
2021/07/27 06:41:59;;;;;;;8.50;7.60;;;22.30;74.30;;;;;;1485875;40;20076;-63
2021/07/27 06:43:20;;;;;;;9.82;7.05;;;22.20;74.00;;;;;;1487840;40;20020;-63
2021/07/27 06:44:41;;;;;;;8.48;7.47;;;22.20;73.90;;;;;;1485215;40;20114;-62
2021/07/27 06:46:02;;;;;;;10.95;7.63;;;22.30;73.80;;;;;;1485658;40;20043;-63
2021/07/27 06:47:23;;;;;;;9.88;7.00;;;22.30;73.60;;;;;;1486594;40;20246;-63
2021/07/27 06:48:44;;;;;;;9.95;7.38;;;22.40;73.50;;;;;;1486409;40;20056;-63
2021/07/27 06:50:06;;;;;;;9.05;6.90;;;22.40;73.40;;;;;;1486699;40;20038;-63
2021/07/27 06:51:27;;;;;;;7.95;6.32;;;22.40;73.10;;;;;;1485892;40;20040;-63
2021/07/27 06:52:48;;;;;;;10.07;7.07;;;22.40;73.00;;;;;;1488187;39;20039;-63
2021/07/27 06:54:09;;;;;;;8.65;6.40;;;22.50;72.80;;;;;;1482922;40;20028;-63
2021/07/27 06:55:30;;;;;;;7.78;6.68;;;22.50;73.00;;;;;;1485790;39;20024;-64
2021/07/27 06:56:55;;;;;;;7.95;6.88;;;22.50;72.80;;;;;;1484478;40;20036;-63
2021/07/27 06:58:16;;;;;;;7.60;6.80;;;22.50;72.40;;;;;;1486563;40;20039;-63
2021/07/27 06:59:37;;;;;;;7.72;6.55;;;22.60;72.30;;;;;;1485198;39;20061;-63
2021/07/27 07:01:06;;;;;;;6.25;5.65;;;22.60;72.10;;;;;;1483363;39;20040;-63
2021/07/27 07:02:30;;;;;;;7.65;6.47;;;22.60;72.80;;;;;;1486122;40;20276;-63
2021/07/27 07:03:50;;;;;;;6.93;6.18;;;22.60;71.90;;;;;;1485560;40;20032;-63
2021/07/27 07:05:12;;;;;;;7.13;6.43;;;22.60;71.90;;;;;;1485254;40;20024;-63
2021/07/27 07:06:33;;;;;;;7.18;6.47;;;22.70;72.00;;;;;;1485958;40;20031;-63
2021/07/27 07:07:54;;;;;;;8.15;6.25;;;22.70;71.90;;;;;;1485993;39;20072;-63
2021/07/27 07:09:14;;;;;;;8.05;6.28;;;22.70;71.70;;;;;;1485719;39;20327;-63
2021/07/27 07:10:36;;;;;;;7.38;6.38;;;22.80;71.70;;;;;;1485404;40;20032;-63
2021/07/27 07:11:57;;;;;;;10.88;6.70;;;22.80;71.50;;;;;;1485795;40;20036;-63
2021/07/27 07:13:18;;;;;;;9.02;5.88;;;22.80;71.60;;;;;;1486790;40;20044;-61
2021/07/27 07:14:39;;;;;;;7.68;6.25;;;22.90;71.60;;;;;;1483456;40;20032;-62
2021/07/27 07:16:00;;;;;;;6.55;5.95;;;22.90;71.50;;;;;;1485457;39;20031;-61
2021/07/27 07:17:21;;;;;;;9.30;5.72;;;22.90;71.10;;;;;;1488544;39;20028;-61
2021/07/27 07:18:42;;;;;;;7.00;5.30;;;22.90;70.90;;;;;;1485660;40;20099;-64